Lubbock International, TX

1:15 PM CDT on April 27, 2015 (GMT -0500)
Lubbock International | | Change Station
CLOSE
Current Station
Airport
Location: Lubbock,
Elevation: 3241 ft
Nearby Weather Stations

Elev 3241 ft 33.67 °N, 101.82 °W | Updated 14 minutes ago

Light Rain
Light Rain Mist
50 °F
Feels Like 50 °F
N
22
Wind Variable Wind from North
Gusts 30 mph

Today
High -- | Low -- °F
--% Chance of Precip.
Yesterday
High -- | Low -- °F
Precip. -- in
7:03 AM 8:27 PM
Waxing Gibbous, 66% visible
Pressure 29.86 in
Visibility 3.0 miles
Clouds Mostly Cloudy 1000 ft
Mostly Cloudy 1600 ft
Overcast 2300 ft
Dew Point 48 °F
Humidity 93%
Rainfall 0.03 in
Snow Depth Not available.
UV 4 out of 12
Pollen 8.10 out of 12
Air Quality Not available.
Flu Activity Local Activity
SPECI KLBB 271801Z 35019G26KT 3SM -RA BR BKN010 BKN016 OVC023 10/09 A2986 RMK AO2 SFC VIS 5 P0000 T01000089

More Conditions Fewer Conditions

Pressure 29.86 in
Visibility 3.0 miles
Clouds Mostly Cloudy 1000 ft
Mostly Cloudy 1600 ft
Overcast 2300 ft
Dew Point 48 °F
Humidity 93%
Rainfall 0.03 in
Snow Depth Not available.
UV 4 out of 12
Pollen 8.10 out of 12
Air Quality Not available.
Flu Activity Local Activity
SPECI KLBB 271801Z 35019G26KT 3SM -RA BR BKN010 BKN016 OVC023 10/09 A2986 RMK AO2 SFC VIS 5 P0000 T01000089

More Conditions Fewer Conditions

10-Day Weather Forecast

Almanac

Astronomy

Apr. 27, 2015 Rise Set
Actual Time
Civil Twilight
Nautical Twilight
Astronomical Twilight
Moon
Length of Visible Light
Length of Day
Tomorrow will be .
, % of the Moon is Illuminated

Today's Extremes

State Highs State Lows

Community

WunderPhotos

Upload Photos

1,817,389 photos uploaded!

WunderBlogs® & News

Nearby

Air Quality

  Air Quality AQ Index Pollutant
Not available.

Snow Depth

Station Depth Elevation

Earthquake Activity

City Distance Mag. Time & Date
Minimum magnitude displayed is 2.5.

Coastal Water Temperatures

Place Temperature

Stations

Nearby Weather Stations

Station Location Temp. Windchill Dew Point Humidity Wind Precip. Elev Updated Type